Time;durP1;ratioP1;P1;durP2;ratioP2;P2;SDS_P1;SDS_P2;PMS_P1;PMS_P2;Temp;Humidity;BMP_temperature;BMP_pressure;BME280_temperature;BME280_humidity;BME280_pressure;Samples;Min_cycle;Max_cycle;Signal;HPM_P1;HPM_P2
2022/03/25 00:00:20;;;;;;;;;;;;;;;;;;5050206;28;991;-62
2022/03/25 00:02:45;;;;;;;;;;;;;;;;;;5050611;28;998;-63
2022/03/25 00:05:11;;;;;;;;;;;;;;;;;;5050437;28;1902;-62
2022/03/25 00:07:36;;;;;;;;;;;;;;;;;;5049869;28;853;-62
2022/03/25 00:10:02;;;;;;;;;;;;;;;;;;5050262;28;838;-62
2022/03/25 00:12:28;;;;;;;;;;;;;;;;;;5050039;28;754;-63
2022/03/25 00:14:53;;;;;;;;;;;;;;;;;;5050532;28;935;-63
2022/03/25 00:17:18;;;;;;;;;;;;;;;;;;5050385;28;1007;-62
2022/03/25 00:19:45;;;;;;;;;;;;;;;;;;5051026;28;1189;-63
2022/03/25 00:22:11;;;;;;;;;;;;;;;;;;5050373;28;916;-63
2022/03/25 00:24:36;;;;;;;;;;;;;;;;;;5049358;28;1915;-62
2022/03/25 00:27:01;;;;;;;;;;;;;;;;;;5050366;28;868;-62
2022/03/25 00:29:27;;;;;;;;;;;;;;;;;;5050606;28;845;-63
2022/03/25 00:31:52;;;;;;;;;;;;;;;;;;5050956;28;840;-62
2022/03/25 00:34:18;;;;;;;;;;;;;;;;;;5051188;28;897;-62
2022/03/25 00:36:44;;;;;;;;;;;;;;;;;;5050490;28;1124;-62
2022/03/25 00:39:09;;;;;;;;;;;;;;;;;;5050896;28;832;-63
2022/03/25 00:41:36;;;;;;;;;;;;;;;;;;5050155;28;949;-62
2022/03/25 00:44:02;;;;;;;;;;;;;;;;;;5050966;28;821;-62
2022/03/25 00:46:27;;;;;;;;;;;;;;;;;;5050166;28;978;-62
2022/03/25 00:48:53;;;;;;;;;;;;;;;;;;5050561;28;801;-62
2022/03/25 00:51:18;;;;;;;;;;;;;;;;;;5050455;28;829;-62
2022/03/25 00:53:45;;;;;;;;;;;;;;;;;;5050320;28;881;-62
2022/03/25 00:56:12;;;;;;;;;;;;;;;;;;5050454;28;829;-62
2022/03/25 00:58:37;;;;;;;;;;;;;;;;;;5050818;28;981;-62
2022/03/25 01:01:02;;;;;;;;;;;;;;;;;;5050618;28;809;-63
2022/03/25 01:03:27;;;;;;;;;;;;;;;;;;5050379;28;899;-63
2022/03/25 01:05:53;;;;;;;;;;;;;;;;;;5050413;28;1890;-62
2022/03/25 01:08:18;;;;;;;;;;;;;;;;;;5050428;28;1062;-62
2022/03/25 01:10:43;;;;;;;;;;;;;;;;;;5049678;28;930;-63
2022/03/25 01:13:08;;;;;;;;;;;;;;;;;;5049883;28;890;-62
2022/03/25 01:15:34;;;;;;;;;;;;;;;;;;5049541;28;845;-62
2022/03/25 01:17:59;;;;;;;;;;;;;;;;;;5049950;28;954;-62
2022/03/25 01:20:24;;;;;;;;;;;;;;;;;;5034242;28;885;-62
2022/03/25 01:22:49;;;;;;;;;;;;;;;;;;5053732;28;1058;-62
2022/03/25 01:31:22;;;;;;;;;;;;;;;;;;5053634;28;696;-62
2022/03/25 01:33:47;;;;;;;;;;;;;;;;;;5053890;28;863;-62
2022/03/25 01:36:12;;;;;;;;;;;;;;;;;;5053952;28;786;-63
2022/03/25 01:38:38;;;;;;;;;;;;;;;;;;5052963;28;898;-62
2022/03/25 01:41:03;;;;;;;;;;;;;;;;;;5035250;28;1011;-62
2022/03/25 01:43:28;;;;;;;;;;;;;;;;;;5052775;28;830;-62
2022/03/25 01:45:54;;;;;;;;;;;;;;;;;;5053574;28;1910;-62
2022/03/25 01:48:21;;;;;;;;;;;;;;;;;;5053573;28;829;-62
2022/03/25 01:50:47;;;;;;;;;;;;;;;;;;5035574;28;873;-62
2022/03/25 01:53:17;;;;;;;;;;;;;;;;;;5035088;28;845;-62
2022/03/25 01:55:47;;;;;;;;;;;;;;;;;;5052894;28;904;-62
2022/03/25 01:58:12;;;;;;;;;;;;;;;;;;5053082;28;929;-62
2022/03/25 02:00:37;;;;;;;;;;;;;;;;;;5052713;28;907;-62
2022/03/25 02:03:04;;;;;;;;;;;;;;;;;;5053135;28;916;-62
2022/03/25 02:05:29;;;;;;;;;;;;;;;;;;5052585;28;1965;-62
2022/03/25 02:07:55;;;;;;;;;;;;;;;;;;5053214;28;1039;-62
2022/03/25 02:10:20;;;;;;;;;;;;;;;;;;5053162;28;890;-62
2022/03/25 02:12:46;;;;;;;;;;;;;;;;;;5052858;28;879;-62
2022/03/25 02:15:12;;;;;;;;;;;;;;;;;;5052788;28;929;-62
2022/03/25 02:17:37;;;;;;;;;;;;;;;;;;5052688;28;865;-62
2022/03/25 02:20:07;;;;;;;;;;;;;;;;;;5053433;28;951;-63
2022/03/25 02:22:34;;;;;;;;;;;;;;;;;;5052633;28;939;-62
2022/03/25 02:25:00;;;;;;;;;;;;;;;;;;5052699;28;1979;-62
2022/03/25 02:27:25;;;;;;;;;;;;;;;;;;5052198;28;963;-63
2022/03/25 02:29:50;;;;;;;;;;;;;;;;;;5052336;28;913;-63
2022/03/25 02:32:16;;;;;;;;;;;;;;;;;;5052115;28;881;-62
2022/03/25 02:34:41;;;;;;;;;;;;;;;;;;5052560;28;881;-62
2022/03/25 02:37:07;;;;;;;;;;;;;;;;;;5052628;28;918;-62
2022/03/25 02:39:32;;;;;;;;;;;;;;;;;;5052213;28;827;-62
2022/03/25 02:41:57;;;;;;;;;;;;;;;;;;5052074;28;995;-62
2022/03/25 02:44:23;;;;;;;;;;;;;;;;;;5052229;28;1918;-62
2022/03/25 02:46:48;;;;;;;;;;;;;;;;;;5051855;28;900;-62
2022/03/25 02:49:14;;;;;;;;;;;;;;;;;;5051995;28;1058;-62
2022/03/25 02:51:39;;;;;;;;;;;;;;;;;;5051797;28;903;-62
2022/03/25 02:54:05;;;;;;;;;;;;;;;;;;5033906;28;1196;-62
2022/03/25 02:56:31;;;;;;;;;;;;;;;;;;5016697;28;1330;-62
2022/03/25 02:58:56;;;;;;;;;;;;;;;;;;5067062;28;1932;-62
2022/03/25 03:01:21;;;;;;;;;;;;;;;;;;5051716;28;999;-62
2022/03/25 03:03:47;;;;;;;;;;;;;;;;;;5051791;28;909;-62
2022/03/25 03:06:12;;;;;;;;;;;;;;;;;;5051683;28;1906;-62
2022/03/25 03:08:37;;;;;;;;;;;;;;;;;;5051203;28;955;-62
2022/03/25 03:11:03;;;;;;;;;;;;;;;;;;5051328;28;890;-62
2022/03/25 03:13:28;;;;;;;;;;;;;;;;;;5051342;28;967;-62
2022/03/25 03:15:54;;;;;;;;;;;;;;;;;;5051520;28;833;-62
2022/03/25 03:18:20;;;;;;;;;;;;;;;;;;5051674;28;1565;-62
2022/03/25 03:20:46;;;;;;;;;;;;;;;;;;5051859;28;972;-62
2022/03/25 03:23:11;;;;;;;;;;;;;;;;;;5051179;28;1204;-62
2022/03/25 03:25:36;;;;;;;;;;;;;;;;;;5050996;28;1964;-62
2022/03/25 03:28:03;;;;;;;;;;;;;;;;;;5050988;28;825;-62
2022/03/25 03:30:28;;;;;;;;;;;;;;;;;;5050849;28;833;-62
2022/03/25 03:33:04;;;;;;;;;;;;;;;;;;5051304;28;774;-62
2022/03/25 03:35:29;;;;;;;;;;;;;;;;;;5051381;28;848;-62
2022/03/25 03:37:55;;;;;;;;;;;;;;;;;;5051075;28;828;-62
2022/03/25 03:40:20;;;;;;;;;;;;;;;;;;5051393;28;1058;-62
2022/03/25 03:42:46;;;;;;;;;;;;;;;;;;5050996;28;923;-62
2022/03/25 03:45:12;;;;;;;;;;;;;;;;;;5051410;28;1898;-62
2022/03/25 03:47:38;;;;;;;;;;;;;;;;;;5050757;28;1123;-62
2022/03/25 03:50:03;;;;;;;;;;;;;;;;;;5051596;28;951;-62
2022/03/25 03:52:29;;;;;;;;;;;;;;;;;;5051121;28;1151;-62
2022/03/25 03:54:54;;;;;;;;;;;;;;;;;;5050596;28;959;-62
2022/03/25 03:57:19;;;;;;;;;;;;;;;;;;5050888;28;1023;-62
2022/03/25 03:59:45;;;;;;;;;;;;;;;;;;5050666;28;815;-62
2022/03/25 04:02:10;;;;;;;;;;;;;;;;;;5051418;28;1026;-62
2022/03/25 04:04:36;;;;;;;;;;;;;;;;;;5050389;28;1944;-62
2022/03/25 04:07:01;;;;;;;;;;;;;;;;;;5050835;28;1258;-62
2022/03/25 04:09:26;;;;;;;;;;;;;;;;;;5051147;28;844;-62
2022/03/25 04:11:53;;;;;;;;;;;;;;;;;;5050682;28;872;-62
2022/03/25 04:14:18;;;;;;;;;;;;;;;;;;5032980;28;903;-62
2022/03/25 04:16:43;;;;;;;;;;;;;;;;;;5050544;28;952;-62
2022/03/25 04:19:09;;;;;;;;;;;;;;;;;;5050787;28;848;-62
2022/03/25 04:21:34;;;;;;;;;;;;;;;;;;5050758;28;892;-63
2022/03/25 04:23:59;;;;;;;;;;;;;;;;;;5050337;28;1095;-62
2022/03/25 04:26:25;;;;;;;;;;;;;;;;;;5050481;28;1906;-62
2022/03/25 04:28:50;;;;;;;;;;;;;;;;;;5050744;28;861;-62
2022/03/25 04:31:16;;;;;;;;;;;;;;;;;;5051205;28;877;-62
2022/03/25 04:33:41;;;;;;;;;;;;;;;;;;5033123;28;911;-62
2022/03/25 04:36:08;;;;;;;;;;;;;;;;;;5033181;28;1129;-63
2022/03/25 04:38:33;;;;;;;;;;;;;;;;;;5050049;28;915;-62
2022/03/25 04:40:59;;;;;;;;;;;;;;;;;;5050156;28;864;-62
2022/03/25 04:43:24;;;;;;;;;;;;;;;;;;5051003;28;790;-62
2022/03/25 04:45:50;;;;;;;;;;;;;;;;;;5051009;28;1976;-62
2022/03/25 04:48:15;;;;;;;;;;;;;;;;;;5032945;28;1240;-62
2022/03/25 04:50:40;;;;;;;;;;;;;;;;;;5050598;28;1142;-62
2022/03/25 04:53:06;;;;;;;;;;;;;;;;;;5050541;28;813;-63
2022/03/25 04:55:31;;;;;;;;;;;;;;;;;;5053029;28;872;-62
2022/03/25 04:57:57;;;;;;;;;;;;;;;;;;5053516;28;1044;-62
2022/03/25 05:00:22;;;;;;;;;;;;;;;;;;5054069;28;887;-62
2022/03/25 05:02:47;;;;;;;;;;;;;;;;;;5054258;28;875;-62
2022/03/25 05:05:13;;;;;;;;;;;;;;;;;;5054201;28;1919;-62
2022/03/25 05:07:42;;;;;;;;;;;;;;;;;;5053721;28;892;-62
2022/03/25 05:10:08;;;;;;;;;;;;;;;;;;5035257;28;1240;-62
2022/03/25 05:12:33;;;;;;;;;;;;;;;;;;5053427;28;900;-64
2022/03/25 05:14:58;;;;;;;;;;;;;;;;;;5053626;28;837;-62
2022/03/25 05:17:23;;;;;;;;;;;;;;;;;;5053517;28;892;-62
2022/03/25 05:19:49;;;;;;;;;;;;;;;;;;5053705;28;1034;-62
2022/03/25 05:22:14;;;;;;;;;;;;;;;;;;5053485;28;817;-62
2022/03/25 05:24:40;;;;;;;;;;;;;;;;;;5052864;28;1981;-62
2022/03/25 05:27:05;;;;;;;;;;;;;;;;;;5053552;28;821;-62
2022/03/25 05:29:30;;;;;;;;;;;;;;;;;;5035407;28;817;-63
2022/03/25 05:31:55;;;;;;;;;;;;;;;;;;5053290;28;916;-62
2022/03/25 05:34:21;;;;;;;;;;;;;;;;;;5053656;28;889;-62
2022/03/25 05:36:46;;;;;;;;;;;;;;;;;;5035685;28;840;-62
2022/03/25 05:39:11;;;;;;;;;;;;;;;;;;5052939;28;988;-61
2022/03/25 05:41:38;;;;;;;;;;;;;;;;;;5053299;28;879;-62
2022/03/25 05:44:03;;;;;;;;;;;;;;;;;;5053515;28;849;-62
2022/03/25 05:46:28;;;;;;;;;;;;;;;;;;5052811;28;1890;-62
2022/03/25 05:48:54;;;;;;;;;;;;;;;;;;5052462;28;774;-62
2022/03/25 05:51:19;;;;;;;;;;;;;;;;;;5053167;28;913;-62
2022/03/25 05:53:44;;;;;;;;;;;;;;;;;;5035119;28;817;-62
2022/03/25 05:56:10;;;;;;;;;;;;;;;;;;5053181;28;975;-62
2022/03/25 05:58:35;;;;;;;;;;;;;;;;;;5053106;28;974;-62
2022/03/25 06:01:01;;;;;;;;;;;;;;;;;;5053309;28;805;-62
2022/03/25 06:03:26;;;;;;;;;;;;;;;;;;5053234;28;891;-62
2022/03/25 06:05:52;;;;;;;;;;;;;;;;;;5053004;28;1961;-62
2022/03/25 06:08:17;;;;;;;;;;;;;;;;;;5052967;28;818;-62
2022/03/25 06:10:43;;;;;;;;;;;;;;;;;;5035519;28;865;-62
2022/03/25 06:13:08;;;;;;;;;;;;;;;;;;5053075;28;1495;-62
2022/03/25 06:15:33;;;;;;;;;;;;;;;;;;5053215;28;934;-62
2022/03/25 06:17:58;;;;;;;;;;;;;;;;;;5053225;28;881;-62
2022/03/25 06:20:24;;;;;;;;;;;;;;;;;;5052994;28;845;-62
2022/03/25 06:22:49;;;;;;;;;;;;;;;;;;5052781;28;908;-62
2022/03/25 06:25:15;;;;;;;;;;;;;;;;;;5051987;28;1923;-62
2022/03/25 06:27:51;;;;;;;;;;;;;;;;;;5052075;28;938;-62
2022/03/25 06:30:17;;;;;;;;;;;;;;;;;;5052146;28;781;-62
2022/03/25 06:32:42;;;;;;;;;;;;;;;;;;5052509;28;813;-62
2022/03/25 06:35:08;;;;;;;;;;;;;;;;;;5052078;28;900;-62
2022/03/25 06:37:34;;;;;;;;;;;;;;;;;;5051855;28;927;-63
2022/03/25 06:39:59;;;;;;;;;;;;;;;;;;5051869;28;865;-63
2022/03/25 06:42:25;;;;;;;;;;;;;;;;;;5051877;28;762;-63
2022/03/25 06:44:51;;;;;;;;;;;;;;;;;;5052235;28;1910;-63
2022/03/25 06:47:16;;;;;;;;;;;;;;;;;;5052459;28;833;-63
2022/03/25 06:49:41;;;;;;;;;;;;;;;;;;5051860;28;908;-63
2022/03/25 06:52:07;;;;;;;;;;;;;;;;;;5051327;28;899;-63
2022/03/25 06:54:32;;;;;;;;;;;;;;;;;;5051611;28;812;-63
2022/03/25 06:56:58;;;;;;;;;;;;;;;;;;5052223;28;952;-63
2022/03/25 06:59:23;;;;;;;;;;;;;;;;;;5051720;28;789;-63
2022/03/25 07:01:49;;;;;;;;;;;;;;;;;;5052473;28;900;-63
2022/03/25 07:04:14;;;;;;;;;;;;;;;;;;5051636;28;840;-63
2022/03/25 07:06:41;;;;;;;;;;;;;;;;;;5051546;28;1894;-64
2022/03/25 07:09:07;;;;;;;;;;;;;;;;;;5052059;28;817;-63
2022/03/25 07:11:32;;;;;;;;;;;;;;;;;;5051795;28;882;-63
2022/03/25 07:13:58;;;;;;;;;;;;;;;;;;5051915;28;876;-63
2022/03/25 07:16:23;;;;;;;;;;;;;;;;;;5050728;28;814;-63
2022/03/25 07:18:48;;;;;;;;;;;;;;;;;;5051754;28;995;-63
2022/03/25 07:21:14;;;;;;;;;;;;;;;;;;5051193;28;785;-63
2022/03/25 07:23:39;;;;;;;;;;;;;;;;;;5050920;28;1054;-63
2022/03/25 07:26:05;;;;;;;;;;;;;;;;;;5051022;28;1895;-63
2022/03/25 07:28:31;;;;;;;;;;;;;;;;;;5051153;28;829;-63
2022/03/25 07:30:56;;;;;;;;;;;;;;;;;;5051628;28;892;-72
2022/03/25 07:33:22;;;;;;;;;;;;;;;;;;5051091;28;934;-71
2022/03/25 07:35:47;;;;;;;;;;;;;;;;;;5051328;28;786;-71
2022/03/25 07:38:12;;;;;;;;;;;;;;;;;;5051383;28;798;-70
2022/03/25 07:40:38;;;;;;;;;;;;;;;;;;5033651;28;778;-71
2022/03/25 07:43:04;;;;;;;;;;;;;;;;;;5051469;28;896;-72
2022/03/25 07:45:29;;;;;;;;;;;;;;;;;;5051461;28;1909;-72
2022/03/25 07:47:54;;;;;;;;;;;;;;;;;;5051523;28;892;-72
2022/03/25 07:50:21;;;;;;;;;;;;;;;;;;5051009;28;904;-71
2022/03/25 07:52:47;;;;;;;;;;;;;;;;;;5051669;28;809;-71
2022/03/25 07:55:13;;;;;;;;;;;;;;;;;;5050685;28;845;-72
2022/03/25 07:57:39;;;;;;;;;;;;;;;;;;5051119;28;934;-71
2022/03/25 08:00:05;;;;;;;;;;;;;;;;;;5050730;28;849;-71
2022/03/25 08:02:33;;;;;;;;;;;;;;;;;;5051148;28;916;-71
2022/03/25 08:04:58;;;;;;;;;;;;;;;;;;5050952;28;1898;-71
2022/03/25 08:07:24;;;;;;;;;;;;;;;;;;5050485;28;872;-71
2022/03/25 08:09:50;;;;;;;;;;;;;;;;;;5050882;28;873;-72
2022/03/25 08:12:15;;;;;;;;;;;;;;;;;;5066103;28;1339;-71
2022/03/25 08:14:40;;;;;;;;;;;;;;;;;;5050877;28;879;-72
2022/03/25 08:17:08;;;;;;;;;;;;;;;;;;5032868;28;888;-71
2022/03/25 08:19:33;;;;;;;;;;;;;;;;;;5050501;28;797;-72
2022/03/25 08:21:58;;;;;;;;;;;;;;;;;;5050707;28;928;-70
2022/03/25 08:29:51;;;;;;;;;;;;;;;;;;5053439;28;644;-70
2022/03/25 08:32:17;;;;;;;;;;;;;;;;;;5055023;28;876;-70
2022/03/25 08:34:43;;;;;;;;;;;;;;;;;;5055041;28;806;-70
2022/03/25 08:37:08;;;;;;;;;;;;;;;;;;5054646;28;983;-70
2022/03/25 08:39:34;;;;;;;;;;;;;;;;;;5054446;28;947;-70
2022/03/25 08:41:59;;;;;;;;;;;;;;;;;;5055213;28;786;-71
2022/03/25 08:44:25;;;;;;;;;;;;;;;;;;5054362;28;1894;-70
2022/03/25 08:46:50;;;;;;;;;;;;;;;;;;5054862;28;896;-70
2022/03/25 08:49:16;;;;;;;;;;;;;;;;;;5036584;28;940;-70
2022/03/25 08:51:41;;;;;;;;;;;;;;;;;;5054412;28;836;-70
2022/03/25 08:54:08;;;;;;;;;;;;;;;;;;5053849;28;869;-70
2022/03/25 08:56:34;;;;;;;;;;;;;;;;;;5053764;28;924;-70
2022/03/25 08:58:59;;;;;;;;;;;;;;;;;;5054219;28;857;-71
2022/03/25 09:01:25;;;;;;;;;;;;;;;;;;5053621;28;888;-70
2022/03/25 09:03:50;;;;;;;;;;;;;;;;;;5054537;28;832;-70
2022/03/25 09:06:16;;;;;;;;;;;;;;;;;;5036113;28;1894;-70
2022/03/25 09:08:41;;;;;;;;;;;;;;;;;;5053742;28;902;-71
2022/03/25 09:11:06;;;;;;;;;;;;;;;;;;5048934;28;1243;-71
2022/03/25 09:13:32;;;;;;;;;;;;;;;;;;5053057;28;1213;-71
2022/03/25 09:15:57;;;;;;;;;;;;;;;;;;5053729;28;1227;-71
2022/03/25 09:18:23;;;;;;;;;;;;;;;;;;5053334;28;912;-70
2022/03/25 09:20:48;;;;;;;;;;;;;;;;;;5054358;28;870;-70
2022/03/25 09:23:13;;;;;;;;;;;;;;;;;;5054284;28;836;-71
2022/03/25 09:25:39;;;;;;;;;;;;;;;;;;5053823;28;1988;-70
2022/03/25 09:28:05;;;;;;;;;;;;;;;;;;5054558;28;955;-70
2022/03/25 09:30:31;;;;;;;;;;;;;;;;;;5054163;28;816;-70
2022/03/25 09:32:56;;;;;;;;;;;;;;;;;;5054771;28;912;-69
2022/03/25 09:35:22;;;;;;;;;;;;;;;;;;5035643;28;877;-70
2022/03/25 09:37:49;;;;;;;;;;;;;;;;;;5054226;28;817;-71
2022/03/25 09:40:24;;;;;;;;;;;;;;;;;;5053011;28;822;-70
2022/03/25 09:42:52;;;;;;;;;;;;;;;;;;5035773;28;1334;-70
2022/03/25 09:45:19;;;;;;;;;;;;;;;;;;5053734;28;1902;-70
2022/03/25 09:47:45;;;;;;;;;;;;;;;;;;5053217;28;836;-70
2022/03/25 09:50:12;;;;;;;;;;;;;;;;;;5053746;28;840;-70
2022/03/25 09:52:38;;;;;;;;;;;;;;;;;;5052981;28;884;-70
2022/03/25 09:55:03;;;;;;;;;;;;;;;;;;5052946;28;865;-70
2022/03/25 09:57:29;;;;;;;;;;;;;;;;;;5052799;28;920;-69
2022/03/25 09:59:55;;;;;;;;;;;;;;;;;;5053260;28;923;-70
2022/03/25 10:02:21;;;;;;;;;;;;;;;;;;5052960;28;802;-70
2022/03/25 10:04:48;;;;;;;;;;;;;;;;;;5034899;28;1902;-69
2022/03/25 10:07:17;;;;;;;;;;;;;;;;;;5053142;28;888;-70
2022/03/25 10:09:45;;;;;;;;;;;;;;;;;;5052539;28;946;-70
2022/03/25 10:12:22;;;;;;;;;;;;;;;;;;5052626;28;817;-70
2022/03/25 10:14:49;;;;;;;;;;;;;;;;;;5035182;28;1626;-70
2022/03/25 10:17:14;;;;;;;;;;;;;;;;;;5052873;28;892;-70
2022/03/25 10:19:46;;;;;;;;;;;;;;;;;;5052805;28;1050;-71
2022/03/25 10:22:14;;;;;;;;;;;;;;;;;;5052741;28;920;-69
2022/03/25 10:24:39;;;;;;;;;;;;;;;;;;5051611;28;1878;-71
2022/03/25 10:27:07;;;;;;;;;;;;;;;;;;5052577;28;957;-71
2022/03/25 10:29:34;;;;;;;;;;;;;;;;;;5052212;28;797;-72
2022/03/25 10:32:10;;;;;;;;;;;;;;;;;;5052792;28;841;-71
2022/03/25 10:34:36;;;;;;;;;;;;;;;;;;5052277;28;868;-70
2022/03/25 10:37:05;;;;;;;;;;;;;;;;;;5052757;28;895;-71
2022/03/25 10:39:31;;;;;;;;;;;;;;;;;;5051923;28;879;-70
2022/03/25 10:41:57;;;;;;;;;;;;;;;;;;5052380;28;930;-70
2022/03/25 10:44:32;;;;;;;;;;;;;;;;;;5052169;28;808;-70
2022/03/25 10:46:57;;;;;;;;;;;;;;;;;;5052563;28;1040;-62
2022/03/25 10:49:23;;;;;;;;;;;;;;;;;;5052654;28;900;-63
2022/03/25 10:51:52;;;;;;;;;;;;;;;;;;5050884;28;983;-63
2022/03/25 10:54:22;;;;;;;;;;;;;;;;;;5052279;28;833;-63
2022/03/25 10:56:48;;;;;;;;;;;;;;;;;;5033934;28;1033;-62
2022/03/25 10:59:27;;;;;;;;;;;;;;;;;;5052090;28;825;-63
2022/03/25 11:01:54;;;;;;;;;;;;;;;;;;5051846;28;928;-62
2022/03/25 11:04:19;;;;;;;;;;;;;;;;;;5051842;28;1878;-63
2022/03/25 11:06:45;;;;;;;;;;;;;;;;;;5051574;28;1964;-63
2022/03/25 11:09:11;;;;;;;;;;;;;;;;;;5051971;28;844;-63
2022/03/25 11:11:37;;;;;;;;;;;;;;;;;;5050952;28;1283;-63
2022/03/25 11:14:04;;;;;;;;;;;;;;;;;;5051696;28;1127;-63
2022/03/25 11:16:31;;;;;;;;;;;;;;;;;;5051413;28;861;-62
2022/03/25 11:18:57;;;;;;;;;;;;;;;;;;5051565;28;845;-63
2022/03/25 11:21:23;;;;;;;;;;;;;;;;;;5052060;28;809;-62
2022/03/25 11:23:51;;;;;;;;;;;;;;;;;;5051649;28;1038;-62
2022/03/25 11:26:19;;;;;;;;;;;;;;;;;;5052105;28;1914;-62
2022/03/25 11:28:45;;;;;;;;;;;;;;;;;;5051148;28;896;-62
2022/03/25 11:31:11;;;;;;;;;;;;;;;;;;5033646;28;1468;-62
2022/03/25 11:33:55;;;;;;;;;;;;;;;;;;5051317;28;759;-62
2022/03/25 11:36:24;;;;;;;;;;;;;;;;;;5051974;28;849;-62
2022/03/25 11:39:09;;;;;;;;;;;;;;;;;;5034262;28;923;-62
2022/03/25 11:41:34;;;;;;;;;;;;;;;;;;5050478;28;1139;-63
2022/03/25 11:44:15;;;;;;;;;;;;;;;;;;5051103;28;766;-62
2022/03/25 11:47:02;;;;;;;;;;;;;;;;;;5050454;28;1889;-62
2022/03/25 11:49:36;;;;;;;;;;;;;;;;;;5050725;28;855;-62
2022/03/25 11:52:28;;;;;;;;;;;;;;;;;;5051108;28;841;-62
2022/03/25 11:54:55;;;;;;;;;;;;;;;;;;5047114;28;1176;-62
2022/03/25 11:57:27;;;;;;;;;;;;;;;;;;5050807;28;1014;-63
2022/03/25 11:59:53;;;;;;;;;;;;;;;;;;5050670;28;826;-62
2022/03/25 12:02:22;;;;;;;;;;;;;;;;;;5051218;28;981;-63
2022/03/25 12:04:48;;;;;;;;;;;;;;;;;;5050584;28;1879;-62
2022/03/25 12:07:16;;;;;;;;;;;;;;;;;;5051043;28;986;-62
2022/03/25 12:09:43;;;;;;;;;;;;;;;;;;5050749;28;1065;-63
2022/03/25 12:12:09;;;;;;;;;;;;;;;;;;5051271;28;911;-63
2022/03/25 12:14:36;;;;;;;;;;;;;;;;;;5050716;28;829;-63
2022/03/25 12:17:07;;;;;;;;;;;;;;;;;;5051015;28;982;-62
2022/03/25 12:19:41;;;;;;;;;;;;;;;;;;5050773;28;899;-62
2022/03/25 12:22:18;;;;;;;;;;;;;;;;;;5050933;28;817;-64
2022/03/25 12:24:44;;;;;;;;;;;;;;;;;;5050192;28;1965;-62
2022/03/25 12:27:09;;;;;;;;;;;;;;;;;;5051279;28;876;-62
2022/03/25 12:29:37;;;;;;;;;;;;;;;;;;5050755;28;829;-62
2022/03/25 12:32:03;;;;;;;;;;;;;;;;;;5050912;28;995;-63
2022/03/25 12:34:29;;;;;;;;;;;;;;;;;;5032837;28;1292;-63
2022/03/25 12:36:56;;;;;;;;;;;;;;;;;;5050689;28;888;-63
2022/03/25 12:39:21;;;;;;;;;;;;;;;;;;5051238;28;948;-63
2022/03/25 12:41:47;;;;;;;;;;;;;;;;;;5050993;28;1010;-62
2022/03/25 12:44:13;;;;;;;;;;;;;;;;;;5051603;28;903;-62
2022/03/25 12:46:39;;;;;;;;;;;;;;;;;;5051271;28;1951;-62
2022/03/25 12:49:07;;;;;;;;;;;;;;;;;;5051374;28;952;-63
2022/03/25 12:51:33;;;;;;;;;;;;;;;;;;5032818;28;841;-63
2022/03/25 12:54:00;;;;;;;;;;;;;;;;;;5033012;28;1163;-63
2022/03/25 12:56:25;;;;;;;;;;;;;;;;;;5051124;28;844;-63
2022/03/25 12:58:53;;;;;;;;;;;;;;;;;;5050667;28;983;-63
2022/03/25 13:01:18;;;;;;;;;;;;;;;;;;5035046;28;864;-62
2022/03/25 13:03:44;;;;;;;;;;;;;;;;;;5053831;28;1272;-63
2022/03/25 13:06:19;;;;;;;;;;;;;;;;;;5052844;28;1898;-63
2022/03/25 13:08:45;;;;;;;;;;;;;;;;;;5051418;28;782;-63
2022/03/25 13:11:12;;;;;;;;;;;;;;;;;;5052152;28;899;-62
2022/03/25 13:13:40;;;;;;;;;;;;;;;;;;5050957;28;967;-62
2022/03/25 13:16:06;;;;;;;;;;;;;;;;;;5054550;28;809;-63
2022/03/25 13:18:32;;;;;;;;;;;;;;;;;;5055298;28;865;-62
2022/03/25 13:20:59;;;;;;;;;;;;;;;;;;5055766;28;806;-62
2022/03/25 13:23:25;;;;;;;;;;;;;;;;;;5054447;28;1114;-63
2022/03/25 13:25:54;;;;;;;;;;;;;;;;;;5053987;28;1965;-62
2022/03/25 13:28:20;;;;;;;;;;;;;;;;;;5054904;28;829;-62
2022/03/25 13:30:48;;;;;;;;;;;;;;;;;;5054905;28;1181;-63
2022/03/25 13:33:23;;;;;;;;;;;;;;;;;;5054187;28;953;-63
2022/03/25 13:35:49;;;;;;;;;;;;;;;;;;5053786;28;872;-63
2022/03/25 13:38:17;;;;;;;;;;;;;;;;;;5054583;28;837;-63
2022/03/25 13:40:44;;;;;;;;;;;;;;;;;;5054670;28;849;-64
2022/03/25 13:43:12;;;;;;;;;;;;;;;;;;5053811;28;829;-61
2022/03/25 13:45:38;;;;;;;;;;;;;;;;;;5053912;28;1902;-63
2022/03/25 13:48:05;;;;;;;;;;;;;;;;;;5053937;28;878;-62
2022/03/25 13:50:30;;;;;;;;;;;;;;;;;;5054004;28;905;-62
2022/03/25 13:53:03;;;;;;;;;;;;;;;;;;5053304;28;836;-63
2022/03/25 13:55:33;;;;;;;;;;;;;;;;;;5053493;28;1142;-63
2022/03/25 13:57:59;;;;;;;;;;;;;;;;;;5052622;28;970;-63
2022/03/25 14:00:31;;;;;;;;;;;;;;;;;;5053237;28;1135;-63
2022/03/25 14:02:57;;;;;;;;;;;;;;;;;;5052677;28;885;-63
2022/03/25 14:05:25;;;;;;;;;;;;;;;;;;5052561;28;1907;-63
2022/03/25 14:07:51;;;;;;;;;;;;;;;;;;5052510;28;809;-63
2022/03/25 14:10:16;;;;;;;;;;;;;;;;;;5053345;28;817;-63
2022/03/25 14:12:42;;;;;;;;;;;;;;;;;;5052519;28;1003;-64
2022/03/25 14:15:14;;;;;;;;;;;;;;;;;;5052824;28;892;-63
2022/03/25 14:17:41;;;;;;;;;;;;;;;;;;5053090;28;892;-63
2022/03/25 14:20:08;;;;;;;;;;;;;;;;;;5053008;28;875;-63
2022/03/25 14:22:34;;;;;;;;;;;;;;;;;;5052670;28;962;-63
2022/03/25 14:24:59;;;;;;;;;;;;;;;;;;5052205;28;1967;-62
2022/03/25 14:27:24;;;;;;;;;;;;;;;;;;5052785;28;836;-63
2022/03/25 14:29:49;;;;;;;;;;;;;;;;;;5052877;28;1049;-63
2022/03/25 14:32:15;;;;;;;;;;;;;;;;;;5052506;28;1528;-63
2022/03/25 14:34:40;;;;;;;;;;;;;;;;;;5052385;28;920;-62
2022/03/25 14:37:06;;;;;;;;;;;;;;;;;;5052015;28;832;-62
2022/03/25 14:39:32;;;;;;;;;;;;;;;;;;5052512;28;813;-63
2022/03/25 14:41:58;;;;;;;;;;;;;;;;;;5051843;28;860;-63
2022/03/25 14:44:23;;;;;;;;;;;;;;;;;;5052158;28;849;-63
2022/03/25 14:46:48;;;;;;;;;;;;;;;;;;5051920;28;1957;-63
2022/03/25 14:49:17;;;;;;;;;;;;;;;;;;5051799;28;860;-63
2022/03/25 14:51:42;;;;;;;;;;;;;;;;;;5052033;28;1009;-63
2022/03/25 14:54:10;;;;;;;;;;;;;;;;;;5052017;28;794;-63
2022/03/25 14:56:36;;;;;;;;;;;;;;;;;;5051769;28;896;-63
2022/03/25 14:59:02;;;;;;;;;;;;;;;;;;5051643;28;1099;-63
2022/03/25 15:01:27;;;;;;;;;;;;;;;;;;5051721;28;955;-62
2022/03/25 15:03:53;;;;;;;;;;;;;;;;;;5051230;28;958;-64
2022/03/25 15:06:18;;;;;;;;;;;;;;;;;;5051589;28;1894;-63
2022/03/25 15:08:44;;;;;;;;;;;;;;;;;;5052302;28;833;-63
2022/03/25 15:11:10;;;;;;;;;;;;;;;;;;5052216;28;848;-63
2022/03/25 15:13:39;;;;;;;;;;;;;;;;;;5051650;28;808;-64
2022/03/25 15:16:05;;;;;;;;;;;;;;;;;;5051749;28;822;-64
2022/03/25 15:18:30;;;;;;;;;;;;;;;;;;5051473;28;971;-63
2022/03/25 15:20:56;;;;;;;;;;;;;;;;;;5051887;28;878;-63
2022/03/25 15:23:21;;;;;;;;;;;;;;;;;;5051341;28;1296;-63
2022/03/25 15:25:47;;;;;;;;;;;;;;;;;;5051585;28;1910;-64
2022/03/25 15:28:12;;;;;;;;;;;;;;;;;;5051933;28;854;-64
2022/03/25 15:36:05;;;;;;;;;;;;;;;;;;5051729;28;691;-63
2022/03/25 15:38:31;;;;;;;;;;;;;;;;;;5051271;28;825;-64
2022/03/25 15:40:56;;;;;;;;;;;;;;;;;;5051384;28;887;-63
2022/03/25 15:43:21;;;;;;;;;;;;;;;;;;5050848;28;849;-64
2022/03/25 15:45:46;;;;;;;;;;;;;;;;;;5051022;28;1968;-63
2022/03/25 15:48:12;;;;;;;;;;;;;;;;;;5051383;28;782;-63
2022/03/25 15:50:37;;;;;;;;;;;;;;;;;;5050906;28;974;-64
2022/03/25 15:53:03;;;;;;;;;;;;;;;;;;5051278;28;892;-64
2022/03/25 15:55:29;;;;;;;;;;;;;;;;;;5050764;28;1035;-63
2022/03/25 15:57:55;;;;;;;;;;;;;;;;;;5050925;28;892;-64
2022/03/25 16:00:24;;;;;;;;;;;;;;;;;;5051122;28;818;-64
2022/03/25 16:02:50;;;;;;;;;;;;;;;;;;5051220;28;898;-64
2022/03/25 16:05:18;;;;;;;;;;;;;;;;;;5050624;28;1902;-64
2022/03/25 16:07:43;;;;;;;;;;;;;;;;;;5050549;28;965;-64
2022/03/25 16:10:09;;;;;;;;;;;;;;;;;;5016007;28;1212;-64
2022/03/25 16:12:34;;;;;;;;;;;;;;;;;;5050953;28;895;-63
2022/03/25 16:14:59;;;;;;;;;;;;;;;;;;5050621;28;885;-63
2022/03/25 16:17:26;;;;;;;;;;;;;;;;;;5050571;28;869;-63
2022/03/25 16:19:51;;;;;;;;;;;;;;;;;;5050722;28;898;-63
2022/03/25 16:22:16;;;;;;;;;;;;;;;;;;5050702;28;813;-63
2022/03/25 16:24:44;;;;;;;;;;;;;;;;;;5050528;28;1915;-63
2022/03/25 16:27:10;;;;;;;;;;;;;;;;;;5050772;28;891;-63
2022/03/25 16:29:35;;;;;;;;;;;;;;;;;;5016084;28;880;-63
2022/03/25 16:32:01;;;;;;;;;;;;;;;;;;5032725;28;935;-63
2022/03/25 16:34:27;;;;;;;;;;;;;;;;;;5050722;28;981;-63
2022/03/25 16:36:52;;;;;;;;;;;;;;;;;;5050239;28;702;-63
2022/03/25 16:39:17;;;;;;;;;;;;;;;;;;5050456;28;868;-62
2022/03/25 16:41:43;;;;;;;;;;;;;;;;;;5050099;28;896;-64
2022/03/25 16:44:08;;;;;;;;;;;;;;;;;;5050462;28;837;-64
2022/03/25 16:46:34;;;;;;;;;;;;;;;;;;5049959;28;1959;-62
2022/03/25 16:49:03;;;;;;;;;;;;;;;;;;5050807;28;826;-62
2022/03/25 16:51:28;;;;;;;;;;;;;;;;;;5053286;28;1160;-62
2022/03/25 16:53:54;;;;;;;;;;;;;;;;;;5054584;28;766;-62
2022/03/25 16:56:19;;;;;;;;;;;;;;;;;;5054648;28;888;-62
2022/03/25 16:58:45;;;;;;;;;;;;;;;;;;5054493;28;900;-62
2022/03/25 17:01:11;;;;;;;;;;;;;;;;;;5054877;28;883;-62
2022/03/25 17:03:36;;;;;;;;;;;;;;;;;;5054059;28;884;-63
2022/03/25 17:06:01;;;;;;;;;;;;;;;;;;5054573;28;1902;-63
2022/03/25 17:08:28;;;;;;;;;;;;;;;;;;5054172;28;896;-62
2022/03/25 17:10:54;;;;;;;;;;;;;;;;;;5054730;28;773;-63
2022/03/25 17:13:20;;;;;;;;;;;;;;;;;;5054422;28;852;-63
2022/03/25 17:15:46;;;;;;;;;;;;;;;;;;5036238;28;868;-63
2022/03/25 17:18:11;;;;;;;;;;;;;;;;;;5036053;28;802;-63
2022/03/25 17:20:37;;;;;;;;;;;;;;;;;;5053601;28;891;-63
2022/03/25 17:23:03;;;;;;;;;;;;;;;;;;5053751;28;901;-62
2022/03/25 17:25:28;;;;;;;;;;;;;;;;;;5053366;28;1963;-63